Time;durP1;ratioP1;P1;durP2;ratioP2;P2;SDS_P1;SDS_P2;PMS_P1;PMS_P2;Temp;Humidity;BMP_temperature;BMP_pressure;BME280_temperature;BME280_humidity;BME280_pressure;Samples;Min_cycle;Max_cycle;Signal;HPM_P1;HPM_P2
2023/09/19 00:00:58;;;;;;;2.90;1.10;;;16.30;83.20;;;;;;5114777;28;20027;-33
2023/09/19 00:03:25;;;;;;;2.88;1.45;;;16.30;83.20;;;;;;5114652;28;20027;-34
2023/09/19 00:05:50;;;;;;;2.35;0.88;;;16.30;83.20;;;;;;5114623;28;20020;-33
2023/09/19 00:08:16;;;;;;;3.35;1.40;;;16.30;83.40;;;;;;5096177;28;20092;-34
2023/09/19 00:10:42;;;;;;;3.90;1.25;;;16.30;84.00;;;;;;5114622;28;20024;-35
2023/09/19 00:13:12;;;;;;;3.63;1.02;;;16.30;83.40;;;;;;5114403;28;20023;-34
2023/09/19 00:15:48;;;;;;;1.88;1.00;;;16.30;83.40;;;;;;5114451;28;20103;-34
2023/09/19 00:18:15;;;;;;;4.25;1.48;;;16.30;83.40;;;;;;5114462;28;20027;-34
2023/09/19 00:20:42;;;;;;;3.47;1.33;;;16.30;83.40;;;;;;5114531;28;20024;-34
2023/09/19 00:23:10;;;;;;;2.38;1.20;;;16.40;83.50;;;;;;5114578;28;20020;-33
2023/09/19 00:25:37;;;;;;;4.60;1.30;;;16.40;83.40;;;;;;5114152;28;20030;-34
2023/09/19 00:28:04;;;;;;;4.40;1.40;;;16.40;83.30;;;;;;5114052;28;20043;-34
2023/09/19 00:30:30;;;;;;;4.95;1.88;;;16.40;83.30;;;;;;5114072;28;20489;-34
2023/09/19 00:32:56;;;;;;;5.07;1.48;;;16.40;83.30;;;;;;5113928;28;20024;-33
2023/09/19 00:35:25;;;;;;;4.57;1.60;;;16.50;83.40;;;;;;5113994;28;20019;-34
2023/09/19 00:37:51;;;;;;;3.83;1.27;;;16.50;83.50;;;;;;5113915;28;20043;-33
2023/09/19 00:40:18;;;;;;;5.22;1.42;;;16.50;83.50;;;;;;5113861;28;20023;-33
2023/09/19 00:42:47;;;;;;;5.88;1.75;;;16.50;83.60;;;;;;5113462;28;20421;-35
2023/09/19 00:45:14;;;;;;;7.63;2.03;;;16.50;83.80;;;;;;5113566;28;20022;-35
2023/09/19 00:47:50;;;;;;;6.47;1.60;;;16.50;83.90;;;;;;5113601;28;20026;-33
2023/09/19 00:50:24;;;;;;;4.45;1.60;;;16.50;84.00;;;;;;5113799;28;20051;-34
2023/09/19 00:52:53;;;;;;;5.70;2.17;;;16.50;84.00;;;;;;5113540;28;20080;-32
2023/09/19 00:55:19;;;;;;;7.13;1.48;;;16.50;84.00;;;;;;5113763;28;20026;-34
2023/09/19 00:57:45;;;;;;;3.22;1.42;;;16.50;84.10;;;;;;5113674;28;20361;-33
2023/09/19 01:00:14;;;;;;;6.75;1.73;;;16.50;84.20;;;;;;5095198;28;20016;-41
2023/09/19 01:02:42;;;;;;;8.10;1.80;;;16.50;84.20;;;;;;5094522;28;20023;-33
2023/09/19 01:05:09;;;;;;;6.53;1.45;;;16.60;84.30;;;;;;5113197;28;20427;-33
2023/09/19 01:07:35;;;;;;;4.07;1.33;;;16.60;84.20;;;;;;5113505;28;20023;-34
2023/09/19 01:10:05;;;;;;;6.78;1.63;;;16.60;84.20;;;;;;5113497;28;20024;-33
2023/09/19 01:12:51;;;;;;;4.65;2.00;;;16.50;84.20;;;;;;5113239;28;20026;-34
2023/09/19 01:15:54;;;;;;;6.25;1.67;;;16.50;84.40;;;;;;5071495;28;20028;-34
2023/09/19 01:18:46;;;;;;;3.95;1.45;;;16.50;84.50;;;;;;5070936;28;20031;-34
2023/09/19 01:21:32;;;;;;;4.30;1.50;;;16.40;84.60;;;;;;5113290;28;20385;-34
2023/09/19 01:24:23;;;;;;;7.88;1.75;;;16.40;84.70;;;;;;5113007;28;20028;-33
2023/09/19 01:27:07;;;;;;;3.75;1.20;;;16.30;84.90;;;;;;5112940;28;20604;-36
2023/09/19 01:29:44;;;;;;;6.90;1.67;;;16.30;84.90;;;;;;5112968;28;20492;-36
2023/09/19 01:32:13;;;;;;;9.13;1.70;;;16.30;85.00;;;;;;5112950;28;20027;-35
2023/09/19 01:34:47;;;;;;;5.05;1.60;;;16.20;85.00;;;;;;5112765;28;20526;-34
2023/09/19 01:37:13;;;;;;;5.20;1.70;;;16.20;85.10;;;;;;5112880;28;20022;-37
2023/09/19 01:39:40;;;;;;;6.93;1.77;;;16.20;85.10;;;;;;5112984;28;20481;-41
2023/09/19 01:42:26;;;;;;;6.13;1.95;;;16.20;85.00;;;;;;5112743;28;20016;-34
2023/09/19 01:45:00;;;;;;;7.97;1.65;;;16.20;85.00;;;;;;5112768;28;20035;-35
2023/09/19 01:47:43;;;;;;;8.13;1.75;;;16.20;84.90;;;;;;5112844;28;20039;-33
2023/09/19 01:50:32;;;;;;;9.88;1.70;;;16.20;84.90;;;;;;5112913;28;20047;-33
2023/09/19 01:53:04;;;;;;;5.82;1.70;;;16.30;84.70;;;;;;5111821;28;20481;-33
2023/09/19 01:55:36;;;;;;;8.63;1.73;;;16.30;84.70;;;;;;5112847;28;20012;-34
2023/09/19 01:58:27;;;;;;;7.63;1.90;;;16.30;84.60;;;;;;5112804;28;20073;-44
2023/09/19 02:00:55;;;;;;;8.05;2.05;;;16.30;84.60;;;;;;5112583;28;20043;-35
2023/09/19 02:03:24;;;;;;;7.50;1.95;;;16.30;84.50;;;;;;5094616;28;20035;-34
2023/09/19 02:05:51;;;;;;;6.65;1.60;;;16.30;84.30;;;;;;5112335;28;20047;-37
2023/09/19 02:08:19;;;;;;;7.40;1.70;;;16.30;84.20;;;;;;5112330;28;20031;-35
2023/09/19 02:10:48;;;;;;;5.75;2.00;;;16.30;84.10;;;;;;5112636;28;20019;-46
2023/09/19 02:13:16;;;;;;;6.70;2.00;;;16.30;83.80;;;;;;5112548;28;20537;-44
2023/09/19 02:15:44;;;;;;;9.18;2.20;;;16.20;83.80;;;;;;5112416;28;20439;-35
2023/09/19 02:18:09;;;;;;;6.95;1.40;;;16.20;83.90;;;;;;5112243;28;20015;-34
2023/09/19 02:20:35;;;;;;;6.82;1.95;;;16.10;83.90;;;;;;5112423;28;20027;-34
2023/09/19 02:23:02;;;;;;;7.00;1.63;;;16.10;84.00;;;;;;5112060;28;20028;-33
2023/09/19 02:25:27;;;;;;;5.65;1.63;;;16.00;84.00;;;;;;5112273;28;20470;-34
2023/09/19 02:27:53;;;;;;;6.00;1.85;;;16.00;84.00;;;;;;5112045;28;20043;-36
2023/09/19 02:30:23;;;;;;;5.75;1.90;;;16.00;83.90;;;;;;5112346;28;20024;-40
2023/09/19 02:32:49;;;;;;;6.00;1.55;;;15.90;83.90;;;;;;5111952;28;20193;-34
2023/09/19 02:35:16;;;;;;;8.82;2.10;;;15.90;83.80;;;;;;5112169;28;20039;-36
2023/09/19 02:37:41;;;;;;;6.82;2.03;;;15.80;83.70;;;;;;5112298;28;20020;-35
2023/09/19 02:40:18;;;;;;;9.45;1.90;;;15.80;83.50;;;;;;5111961;28;20432;-34
2023/09/19 02:42:49;;;;;;;8.48;1.80;;;15.70;83.50;;;;;;5093766;28;20077;-35
2023/09/19 02:45:18;;;;;;;7.85;2.10;;;15.70;83.50;;;;;;5110880;28;20027;-35
2023/09/19 02:47:44;;;;;;;9.70;2.10;;;15.70;83.30;;;;;;5111727;28;20023;-35
2023/09/19 02:50:11;;;;;;;9.02;1.90;;;15.60;83.30;;;;;;5112163;28;20064;-33
2023/09/19 02:52:37;;;;;;;8.23;1.98;;;15.60;83.20;;;;;;5111744;28;20324;-35
2023/09/19 02:55:04;;;;;;;7.30;1.90;;;15.60;83.20;;;;;;5111602;28;20023;-36
2023/09/19 02:57:31;;;;;;;6.03;1.65;;;15.60;83.20;;;;;;5112099;28;20065;-35
2023/09/19 02:59:56;;;;;;;6.03;1.90;;;15.50;83.10;;;;;;5112142;28;20020;-34
2023/09/19 03:02:24;;;;;;;4.07;1.63;;;15.50;83.20;;;;;;5111940;28;20030;-35
2023/09/19 03:04:51;;;;;;;5.90;1.55;;;15.50;83.10;;;;;;5113266;28;20031;-35
2023/09/19 03:07:17;;;;;;;9.57;2.25;;;15.50;83.00;;;;;;5097469;28;20035;-36
2023/09/19 03:09:43;;;;;;;6.45;1.95;;;15.50;82.90;;;;;;5115767;28;20030;-42
2023/09/19 03:12:08;;;;;;;6.43;1.60;;;15.40;82.80;;;;;;5115685;28;20393;-34
2023/09/19 03:14:35;;;;;;;5.05;1.88;;;15.40;82.90;;;;;;5115451;28;20080;-34
2023/09/19 03:17:01;;;;;;;8.40;1.80;;;15.40;83.50;;;;;;5097291;28;20015;-33
2023/09/19 03:19:27;;;;;;;7.93;2.10;;;15.40;82.80;;;;;;5115486;28;20011;-34
2023/09/19 03:21:53;;;;;;;8.68;2.10;;;15.30;82.70;;;;;;5115663;28;20041;-40
2023/09/19 03:24:19;;;;;;;6.18;1.77;;;15.30;82.60;;;;;;5115074;28;20103;-35
2023/09/19 03:26:45;;;;;;;7.32;1.77;;;15.30;82.60;;;;;;5115874;28;20047;-36
2023/09/19 03:29:11;;;;;;;4.85;1.52;;;15.20;82.40;;;;;;5115687;28;20672;-35
2023/09/19 03:31:36;;;;;;;6.75;1.83;;;15.20;82.50;;;;;;5115589;28;20549;-34
2023/09/19 03:34:03;;;;;;;6.20;2.05;;;15.20;82.50;;;;;;5115050;28;20366;-34
2023/09/19 03:36:29;;;;;;;8.52;1.80;;;15.10;82.40;;;;;;5115150;28;20123;-34
2023/09/19 03:38:55;;;;;;;5.95;1.95;;;15.10;82.40;;;;;;5115225;28;20023;-34
2023/09/19 03:41:20;;;;;;;8.18;2.17;;;15.10;82.40;;;;;;5115288;28;20482;-36
2023/09/19 03:43:46;;;;;;;7.97;1.80;;;15.10;82.40;;;;;;5115168;28;20027;-33
2023/09/19 03:46:15;;;;;;;10.15;2.30;;;15.10;82.30;;;;;;5114774;28;20586;-34
2023/09/19 03:48:40;;;;;;;6.05;1.90;;;15.00;82.20;;;;;;5115255;28;20027;-33
2023/09/19 03:51:06;;;;;;;9.05;1.90;;;15.10;82.20;;;;;;5115275;28;20383;-35
2023/09/19 03:53:32;;;;;;;4.97;1.75;;;15.00;82.00;;;;;;5114913;28;20531;-34
2023/09/19 03:55:57;;;;;;;6.07;1.77;;;15.00;82.00;;;;;;5114984;28;20015;-32
2023/09/19 03:58:23;;;;;;;7.38;1.73;;;15.00;82.00;;;;;;5115049;28;20019;-35
2023/09/19 04:00:50;;;;;;;7.22;1.83;;;15.00;81.90;;;;;;5114744;28;20487;-33
2023/09/19 04:03:20;;;;;;;6.43;1.85;;;15.00;81.90;;;;;;5114880;28;20053;-36
2023/09/19 04:05:47;;;;;;;6.18;1.50;;;14.90;81.70;;;;;;5114544;28;20023;-35
2023/09/19 04:08:13;;;;;;;6.10;1.63;;;14.90;81.80;;;;;;5114972;28;20505;-35
2023/09/19 04:10:38;;;;;;;5.35;1.40;;;14.90;81.70;;;;;;5114745;28;20053;-34
2023/09/19 04:13:04;;;;;;;7.00;2.00;;;14.90;81.60;;;;;;5114454;28;20024;-33
2023/09/19 04:15:30;;;;;;;6.65;1.70;;;14.90;81.50;;;;;;5114608;28;20435;-34
2023/09/19 04:17:55;;;;;;;6.30;2.15;;;14.80;81.40;;;;;;5113666;28;20099;-35
2023/09/19 04:20:23;;;;;;;5.00;1.67;;;14.80;81.30;;;;;;5114489;28;20028;-34
2023/09/19 04:22:48;;;;;;;7.57;1.38;;;14.80;81.30;;;;;;5114412;28;20478;-32
2023/09/19 04:25:14;;;;;;;5.88;1.70;;;14.80;81.30;;;;;;5114334;28;20035;-37
2023/09/19 04:27:41;;;;;;;3.85;1.50;;;14.80;81.10;;;;;;5114052;28;20055;-34
2023/09/19 04:30:11;;;;;;;6.18;1.67;;;14.80;81.00;;;;;;5114228;28;20023;-37
2023/09/19 04:32:39;;;;;;;8.35;1.52;;;14.80;80.90;;;;;;5114223;28;20030;-33
2023/09/19 04:35:07;;;;;;;7.05;1.90;;;14.90;80.80;;;;;;5114204;28;20107;-34
2023/09/19 04:37:33;;;;;;;6.07;1.77;;;14.90;80.60;;;;;;5114145;28;20120;-34
2023/09/19 04:39:59;;;;;;;5.38;1.60;;;14.90;80.60;;;;;;5113902;28;20019;-34
2023/09/19 04:42:25;;;;;;;6.88;1.73;;;14.90;80.50;;;;;;5113825;28;20035;-44
2023/09/19 04:44:54;;;;;;;6.28;1.67;;;14.80;80.40;;;;;;5095753;28;20031;-32
2023/09/19 04:47:21;;;;;;;5.72;1.85;;;14.80;80.40;;;;;;5113634;28;20024;-39
2023/09/19 04:49:46;;;;;;;5.90;1.95;;;14.80;80.50;;;;;;5113991;28;20732;-34
2023/09/19 04:52:15;;;;;;;11.63;3.50;;;14.80;80.50;;;;;;5113729;28;20016;-35
2023/09/19 04:54:41;;;;;;;9.10;2.13;;;14.70;80.30;;;;;;5113598;28;20076;-34
2023/09/19 04:57:07;;;;;;;5.28;1.67;;;14.80;80.40;;;;;;5113540;28;20024;-34
2023/09/19 04:59:32;;;;;;;6.57;2.17;;;14.70;80.30;;;;;;5113775;28;20114;-34
2023/09/19 05:01:58;;;;;;;6.00;1.80;;;14.70;80.30;;;;;;5113692;28;20073;-34
2023/09/19 05:04:24;;;;;;;6.78;2.15;;;14.70;80.40;;;;;;5113380;28;20062;-35
2023/09/19 05:06:50;;;;;;;5.90;1.85;;;14.70;80.40;;;;;;5113423;28;20058;-34
2023/09/19 05:09:19;;;;;;;3.67;1.60;;;14.70;80.30;;;;;;5113641;28;20024;-37
2023/09/19 05:11:46;;;;;;;10.50;1.90;;;14.80;80.30;;;;;;5113760;28;20041;-44
2023/09/19 05:14:11;;;;;;;14.45;2.00;;;14.70;80.30;;;;;;5094866;28;20028;-34
2023/09/19 05:16:37;;;;;;;6.43;1.88;;;14.70;80.20;;;;;;5113676;28;20027;-34
2023/09/19 05:19:03;;;;;;;4.95;1.90;;;14.70;80.10;;;;;;5113123;28;20020;-34
2023/09/19 05:21:30;;;;;;;6.65;2.15;;;14.70;80.10;;;;;;5113171;28;20024;-35
2023/09/19 05:23:56;;;;;;;7.32;1.90;;;14.70;80.10;;;;;;5113106;28;20016;-35
2023/09/19 05:26:22;;;;;;;5.72;1.88;;;14.80;80.10;;;;;;5112480;28;20485;-35
2023/09/19 05:28:50;;;;;;;4.72;1.35;;;14.70;80.00;;;;;;5112851;28;20039;-37
2023/09/19 05:31:16;;;;;;;5.15;1.40;;;14.80;80.10;;;;;;5113293;28;20055;-37
2023/09/19 05:33:42;;;;;;;4.60;1.73;;;14.80;80.10;;;;;;5094561;28;20077;-35
2023/09/19 05:36:10;;;;;;;4.68;1.58;;;14.80;80.10;;;;;;5113120;28;20422;-34
2023/09/19 05:38:36;;;;;;;6.30;1.58;;;14.80;80.20;;;;;;5112864;28;20023;-34
2023/09/19 05:41:02;;;;;;;5.95;1.60;;;14.80;80.20;;;;;;5113091;28;20023;-33
2023/09/19 05:43:28;;;;;;;4.35;1.50;;;14.90;80.20;;;;;;5112798;28;20597;-36
2023/09/19 05:45:56;;;;;;;7.40;1.70;;;14.90;80.10;;;;;;5112272;28;20059;-34
2023/09/19 05:48:22;;;;;;;6.50;1.60;;;14.90;80.20;;;;;;5112893;28;20023;-35
2023/09/19 05:50:48;;;;;;;6.45;1.63;;;14.90;80.20;;;;;;5094239;28;20389;-44
2023/09/19 05:53:15;;;;;;;4.60;1.70;;;14.90;80.20;;;;;;5112522;28;20054;-37
2023/09/19 05:55:41;;;;;;;5.93;1.88;;;15.00;80.30;;;;;;5112723;28;20035;-35
2023/09/19 05:58:08;;;;;;;7.00;1.77;;;15.00;80.20;;;;;;5112486;28;20020;-45
2023/09/19 06:00:34;;;;;;;4.60;1.55;;;14.90;80.20;;;;;;5112876;28;20366;-36
2023/09/19 06:02:59;;;;;;;5.28;1.65;;;14.90;80.10;;;;;;5112546;28;20019;-35
2023/09/19 06:05:27;;;;;;;8.07;1.77;;;15.00;80.20;;;;;;5112558;28;20027;-35
2023/09/19 06:07:53;;;;;;;6.95;1.63;;;15.00;80.20;;;;;;5112802;28;20020;-35
2023/09/19 06:10:23;;;;;;;8.63;2.00;;;15.00;80.20;;;;;;5112336;28;20022;-40
2023/09/19 06:12:48;;;;;;;4.50;1.67;;;15.00;80.20;;;;;;5112492;28;20102;-34
2023/09/19 06:15:15;;;;;;;4.93;1.67;;;15.10;80.30;;;;;;5111947;28;20102;-38
2023/09/19 06:17:48;;;;;;;9.02;1.63;;;15.10;80.30;;;;;;5112165;28;20035;-41
2023/09/19 06:20:14;;;;;;;6.55;1.65;;;15.10;80.30;;;;;;5112120;28;20020;-36
2023/09/19 06:22:44;;;;;;;5.05;1.50;;;15.10;80.30;;;;;;5112127;28;20069;-36
2023/09/19 06:25:11;;;;;;;7.82;1.92;;;15.10;80.30;;;;;;5093551;28;20020;-35
2023/09/19 06:27:41;;;;;;;8.85;1.73;;;15.10;80.40;;;;;;5111876;28;20044;-34
2023/09/19 06:30:07;;;;;;;5.68;1.52;;;15.10;80.40;;;;;;5112048;28;20361;-34
2023/09/19 06:32:33;;;;;;;7.05;1.98;;;15.10;80.40;;;;;;5111938;28;20024;-33
2023/09/19 06:34:59;;;;;;;5.22;1.60;;;15.20;80.50;;;;;;5111649;28;20035;-35
2023/09/19 06:37:27;;;;;;;8.43;1.85;;;15.20;80.40;;;;;;5112323;28;20020;-35
2023/09/19 06:39:53;;;;;;;7.05;2.22;;;15.20;80.40;;;;;;5114833;28;20023;-34
2023/09/19 06:42:19;;;;;;;8.05;1.77;;;15.30;80.50;;;;;;5118591;28;20477;-39
2023/09/19 06:44:45;;;;;;;4.20;1.50;;;15.30;80.40;;;;;;5118405;28;20035;-35
2023/09/19 06:47:10;;;;;;;6.38;1.85;;;15.40;80.50;;;;;;5118527;28;20473;-35
2023/09/19 06:49:36;;;;;;;5.25;1.70;;;15.40;80.40;;;;;;5118664;28;20323;-36
2023/09/19 06:52:02;;;;;;;5.53;1.58;;;15.50;80.40;;;;;;5118705;28;20053;-35
2023/09/19 06:54:31;;;;;;;6.85;1.77;;;15.50;80.40;;;;;;5118258;28;20020;-34
2023/09/19 06:56:58;;;;;;;4.25;1.80;;;15.60;80.50;;;;;;5118869;28;20088;-36
2023/09/19 06:59:24;;;;;;;7.35;1.88;;;15.60;80.40;;;;;;5118391;28;20015;-33
2023/09/19 07:01:50;;;;;;;6.65;1.70;;;15.60;80.40;;;;;;5118673;28;20020;-35
2023/09/19 07:04:18;;;;;;;5.20;1.80;;;15.70;80.40;;;;;;5118390;28;20424;-35
2023/09/19 07:06:45;;;;;;;7.15;1.88;;;15.70;80.40;;;;;;5118528;28;20035;-35
2023/09/19 07:09:12;;;;;;;4.57;1.60;;;15.70;80.30;;;;;;5118347;28;20073;-35
2023/09/19 07:11:38;;;;;;;6.30;1.95;;;15.80;80.40;;;;;;5118490;28;20388;-35
2023/09/19 07:14:05;;;;;;;7.97;2.40;;;15.80;80.40;;;;;;5118433;28;20537;-34
2023/09/19 07:16:31;;;;;;;9.52;2.10;;;15.80;80.30;;;;;;5118395;28;20409;-34
2023/09/19 07:18:57;;;;;;;5.68;1.67;;;15.80;80.30;;;;;;5118318;28;20024;-35
2023/09/19 07:21:23;;;;;;;7.47;2.03;;;15.80;80.40;;;;;;5118368;28;20055;-35
2023/09/19 07:23:49;;;;;;;5.47;1.67;;;15.90;80.40;;;;;;5118144;28;20030;-33
2023/09/19 07:26:15;;;;;;;6.10;1.80;;;15.90;80.30;;;;;;5118122;28;20023;-37
2023/09/19 07:28:41;;;;;;;6.88;1.67;;;15.90;80.30;;;;;;5118113;28;20035;-34
2023/09/19 07:31:10;;;;;;;7.28;1.90;;;15.90;80.30;;;;;;5118239;28;20036;-35
2023/09/19 07:33:36;;;;;;;9.27;2.30;;;16.00;80.30;;;;;;5118259;28;20372;-41
2023/09/19 07:36:02;;;;;;;5.85;1.85;;;16.00;80.30;;;;;;5118241;28;20019;-32
2023/09/19 07:38:28;;;;;;;8.07;2.15;;;16.10;80.20;;;;;;5118136;28;20392;-36
2023/09/19 07:41:00;;;;;;;8.00;1.83;;;16.10;80.10;;;;;;5118426;28;20044;-36
2023/09/19 07:43:26;;;;;;;6.00;1.60;;;16.10;80.00;;;;;;5118133;28;20072;-35
2023/09/19 07:45:52;;;;;;;5.43;1.90;;;16.20;80.10;;;;;;5118015;28;20027;-35
2023/09/19 07:48:17;;;;;;;5.15;1.90;;;16.20;80.00;;;;;;5118408;28;20027;-37
2023/09/19 07:50:43;;;;;;;9.48;2.42;;;16.20;79.90;;;;;;5116598;28;20028;-34
2023/09/19 07:53:09;;;;;;;7.75;1.90;;;16.20;79.80;;;;;;5114298;28;20020;-35
2023/09/19 07:55:34;;;;;;;8.68;2.30;;;16.30;79.80;;;;;;5114650;28;20022;-34
2023/09/19 07:58:00;;;;;;;10.23;2.17;;;16.30;79.80;;;;;;5113491;28;20062;-34
2023/09/19 08:00:26;;;;;;;5.70;1.77;;;16.30;79.70;;;;;;5095489;28;20115;-37
2023/09/19 08:02:52;;;;;;;5.05;1.63;;;16.40;79.70;;;;;;5096416;28;20027;-35
2023/09/19 08:05:18;;;;;;;8.27;1.73;;;16.40;80.20;;;;;;5114466;28;20015;-36
2023/09/19 08:07:48;;;;;;;8.32;1.45;;;16.50;79.60;;;;;;5114596;28;20030;-35
2023/09/19 08:10:15;;;;;;;6.57;1.83;;;16.50;79.50;;;;;;5114461;28;20020;-45
2023/09/19 08:12:48;;;;;;;7.22;2.00;;;16.50;79.50;;;;;;5114433;28;20389;-35
2023/09/19 08:15:19;;;;;;;6.30;2.20;;;16.60;79.40;;;;;;5114247;28;20107;-34
2023/09/19 08:17:45;;;;;;;8.50;1.95;;;16.60;79.30;;;;;;5114310;28;20027;-35
2023/09/19 08:20:21;;;;;;;12.68;2.20;;;16.60;79.20;;;;;;5114247;28;20044;-34
2023/09/19 08:22:52;;;;;;;6.40;1.90;;;16.60;79.20;;;;;;5095889;28;20016;-35
2023/09/19 08:25:18;;;;;;;6.30;1.90;;;16.70;79.20;;;;;;5114260;28;20035;-36
2023/09/19 08:27:48;;;;;;;8.48;2.08;;;16.70;79.10;;;;;;5114134;28;20481;-35
2023/09/19 08:30:15;;;;;;;9.23;2.20;;;16.80;79.00;;;;;;5114071;28;20027;-34
2023/09/19 08:32:42;;;;;;;5.40;1.90;;;16.80;78.90;;;;;;5114451;28;20054;-33
2023/09/19 08:35:09;;;;;;;9.20;2.75;;;16.90;78.90;;;;;;5113784;28;20024;-35
2023/09/19 08:37:35;;;;;;;6.38;2.10;;;17.00;78.80;;;;;;5114187;28;20027;-35
2023/09/19 08:40:00;;;;;;;8.70;1.90;;;17.10;78.70;;;;;;5114141;28;20095;-35
2023/09/19 08:42:26;;;;;;;10.00;2.25;;;17.20;78.60;;;;;;5113768;28;20030;-36
2023/09/19 08:44:55;;;;;;;8.43;2.40;;;17.20;78.40;;;;;;5113783;28;20384;-35
2023/09/19 08:47:35;;;;;;;5.72;1.80;;;17.20;78.30;;;;;;5113988;28;20028;-35
2023/09/19 08:50:25;;;;;;;8.50;1.98;;;17.30;78.20;;;;;;5113642;28;20077;-34
2023/09/19 08:52:55;;;;;;;6.38;1.85;;;17.30;78.10;;;;;;5113426;28;20031;-34
2023/09/19 08:55:27;;;;;;;8.75;2.20;;;17.40;78.10;;;;;;5113814;28;20381;-35
2023/09/19 08:57:55;;;;;;;8.20;2.13;;;17.40;78.00;;;;;;5113660;28;20023;-35
2023/09/19 09:00:22;;;;;;;7.20;2.20;;;17.40;77.90;;;;;;5113531;28;20319;-40
2023/09/19 09:02:49;;;;;;;5.60;1.90;;;17.50;77.90;;;;;;5113036;28;20028;-35
2023/09/19 09:05:22;;;;;;;8.20;2.13;;;17.50;78.40;;;;;;5113047;28;20115;-35
2023/09/19 09:07:51;;;;;;;8.98;2.30;;;17.60;77.60;;;;;;5113332;28;20028;-37
2023/09/19 09:10:18;;;;;;;8.70;2.00;;;17.60;77.60;;;;;;5113247;28;20032;-34
2023/09/19 09:12:43;;;;;;;8.13;2.00;;;17.60;77.50;;;;;;5113034;28;20040;-34
2023/09/19 09:15:11;;;;;;;6.28;1.95;;;17.60;77.40;;;;;;5113020;28;20037;-36
2023/09/19 09:17:37;;;;;;;10.38;2.10;;;17.60;77.20;;;;;;5113018;28;20084;-37
2023/09/19 09:20:08;;;;;;;6.80;1.75;;;17.70;77.10;;;;;;5112852;28;20039;-38
2023/09/19 09:22:33;;;;;;;6.30;2.20;;;17.70;77.00;;;;;;5113393;28;20066;-36
2023/09/19 09:25:04;;;;;;;5.47;1.85;;;17.70;76.90;;;;;;5094537;28;20062;-35
2023/09/19 09:27:32;;;;;;;5.80;1.70;;;17.80;76.90;;;;;;5113117;28;20100;-39
2023/09/19 09:29:58;;;;;;;6.25;1.77;;;17.80;76.60;;;;;;5113184;28;20016;-34
2023/09/19 09:32:25;;;;;;;5.68;1.70;;;17.90;76.50;;;;;;5112789;28;20023;-32
2023/09/19 09:34:55;;;;;;;6.68;1.65;;;18.00;76.30;;;;;;5112960;28;20031;-34
2023/09/19 09:37:22;;;;;;;6.55;1.90;;;18.20;75.80;;;;;;5112758;28;20031;-34
2023/09/19 09:40:12;;;;;;;7.63;1.73;;;18.20;75.40;;;;;;5113086;28;20037;-40
2023/09/19 09:42:41;;;;;;;5.57;1.70;;;18.30;75.10;;;;;;5112694;28;20035;-35
2023/09/19 09:45:19;;;;;;;5.45;1.70;;;18.40;74.80;;;;;;5112319;28;20024;-34
2023/09/19 09:47:57;;;;;;;8.05;2.13;;;18.40;74.50;;;;;;5094175;28;20054;-34
2023/09/19 09:50:56;;;;;;;4.30;1.58;;;18.40;74.30;;;;;;5112735;28;20023;-33
2023/09/19 09:53:27;;;;;;;9.80;1.90;;;18.40;74.30;;;;;;5112409;28;20482;-34
2023/09/19 09:56:05;;;;;;;6.05;1.85;;;18.40;74.90;;;;;;5112596;28;20039;-33
2023/09/19 09:58:32;;;;;;;4.80;1.88;;;18.40;73.80;;;;;;5112339;28;20063;-33
2023/09/19 10:00:59;;;;;;;4.47;1.70;;;18.50;73.90;;;;;;5112710;28;20599;-40
2023/09/19 10:03:41;;;;;;;7.43;1.98;;;18.50;73.80;;;;;;5112400;28;20492;-35
2023/09/19 10:11:39;;;;;;;11.57;2.75;;;18.80;73.10;;;;;;5112496;28;20075;-35
2023/09/19 10:14:08;;;;;;;9.02;2.70;;;18.80;72.80;;;;;;5111418;28;20023;-35
2023/09/19 10:16:35;;;;;;;4.97;1.75;;;18.90;72.50;;;;;;5112661;28;20357;-35
2023/09/19 10:19:05;;;;;;;9.07;2.08;;;18.90;72.40;;;;;;5112442;28;20331;-34
2023/09/19 10:21:31;;;;;;;6.75;2.08;;;18.90;72.30;;;;;;5112076;28;20062;-36
2023/09/19 10:23:59;;;;;;;7.55;1.95;;;19.00;72.10;;;;;;5111845;28;20063;-34
2023/09/19 10:26:30;;;;;;;7.47;2.08;;;19.00;72.00;;;;;;5112055;28;20114;-33
2023/09/19 10:28:59;;;;;;;4.60;1.80;;;19.10;72.00;;;;;;5093488;28;20052;-34
2023/09/19 10:31:26;;;;;;;9.10;2.08;;;19.10;71.80;;;;;;5112328;28;20035;-34
2023/09/19 10:33:55;;;;;;;8.35;2.10;;;19.20;71.50;;;;;;5111754;28;20039;-34
2023/09/19 10:36:25;;;;;;;6.07;1.75;;;19.20;71.30;;;;;;5111728;28;20042;-36
2023/09/19 10:38:55;;;;;;;6.75;1.80;;;19.20;71.10;;;;;;5111692;28;20031;-33
2023/09/19 10:41:22;;;;;;;9.43;1.88;;;19.20;70.90;;;;;;5111961;28;20388;-34
2023/09/19 10:43:48;;;;;;;6.95;2.10;;;19.30;71.00;;;;;;5112002;28;20028;-34
2023/09/19 10:46:14;;;;;;;7.82;2.17;;;19.30;70.80;;;;;;5111417;28;20106;-35
2023/09/19 10:48:43;;;;;;;9.00;2.40;;;19.30;70.80;;;;;;5112299;28;20031;-35
2023/09/19 10:51:13;;;;;;;6.13;1.80;;;19.40;70.70;;;;;;5112102;28;20444;-35
2023/09/19 10:54:01;;;;;;;5.57;2.10;;;19.40;70.70;;;;;;5111903;28;20434;-41
2023/09/19 10:56:35;;;;;;;7.07;2.20;;;19.50;70.50;;;;;;5112104;28;20051;-37
2023/09/19 10:59:16;;;;;;;8.50;2.15;;;19.60;70.30;;;;;;5111837;28;20030;-35
2023/09/19 11:01:52;;;;;;;9.35;2.17;;;19.60;70.20;;;;;;5111802;28;20611;-34
2023/09/19 11:04:29;;;;;;;6.40;1.80;;;19.60;70.30;;;;;;5111960;28;20106;-35
2023/09/19 11:07:12;;;;;;;6.40;1.83;;;19.60;70.40;;;;;;5112019;28;20035;-36
2023/09/19 11:09:57;;;;;;;4.07;1.63;;;19.60;70.50;;;;;;5112003;28;20104;-35
2023/09/19 11:12:29;;;;;;;6.05;1.70;;;19.60;70.60;;;;;;5111654;28;20039;-35
2023/09/19 11:14:55;;;;;;;3.28;1.52;;;19.50;70.50;;;;;;5111637;28;20120;-36
2023/09/19 11:17:21;;;;;;;6.85;1.98;;;19.50;70.60;;;;;;5111689;28;20024;-36
2023/09/19 11:22:49;;;;;;;7.05;1.98;;;19.50;70.40;;;;;;5112194;28;20500;-35
2023/09/19 11:25:30;;;;;;;6.65;2.30;;;19.50;70.10;;;;;;5111747;28;20433;-35
2023/09/19 11:28:16;;;;;;;4.88;1.60;;;19.60;70.00;;;;;;5115240;28;20056;-35
2023/09/19 11:30:43;;;;;;;7.45;2.10;;;19.50;69.90;;;;;;5115280;28;20110;-37
2023/09/19 11:33:31;;;;;;;6.68;1.98;;;19.60;69.90;;;;;;5115914;28;20059;-45
2023/09/19 11:36:06;;;;;;;5.13;1.70;;;19.60;69.50;;;;;;5115088;28;20023;-36
2023/09/19 11:38:50;;;;;;;5.43;1.80;;;19.70;69.30;;;;;;5115029;28;20108;-34
2023/09/19 11:41:25;;;;;;;5.00;1.50;;;19.70;69.40;;;;;;5115030;28;20036;-33
2023/09/19 11:44:05;;;;;;;6.57;1.80;;;19.70;69.30;;;;;;5115275;28;20039;-36
2023/09/19 11:46:32;;;;;;;4.78;1.80;;;19.80;69.30;;;;;;5114732;28;20036;-35
2023/09/19 11:49:15;;;;;;;4.35;1.50;;;19.90;69.10;;;;;;5114843;28;20067;-35
2023/09/19 11:51:43;;;;;;;8.05;1.67;;;19.90;69.00;;;;;;5115112;28;20028;-35
2023/09/19 11:54:18;;;;;;;3.45;1.48;;;20.00;68.80;;;;;;5114290;28;20028;-37
2023/09/19 11:56:45;;;;;;;5.00;1.50;;;20.10;68.70;;;;;;5114759;28;20031;-36
2023/09/19 11:59:11;;;;;;;5.38;1.63;;;20.30;68.70;;;;;;5114555;28;20019;-36
2023/09/19 12:01:43;;;;;;;4.30;1.48;;;20.30;67.80;;;;;;5114597;28;20023;-37
2023/09/19 12:04:11;;;;;;;4.90;1.52;;;20.40;68.30;;;;;;5114383;28;20384;-37
2023/09/19 12:06:41;;;;;;;9.57;1.75;;;20.50;67.40;;;;;;5114472;28;20046;-36
2023/09/19 12:09:16;;;;;;;4.03;1.50;;;20.60;67.40;;;;;;5114423;28;20638;-36
2023/09/19 12:11:45;;;;;;;4.40;1.40;;;20.60;67.40;;;;;;5114401;28;20034;-36
2023/09/19 12:14:11;;;;;;;1.40;1.10;;;20.60;67.30;;;;;;5114142;28;20031;-32
2023/09/19 12:16:38;;;;;;;3.95;1.27;;;20.70;67.30;;;;;;5114325;28;20008;-34
2023/09/19 12:19:21;;;;;;;2.67;1.20;;;20.80;67.20;;;;;;5114099;28;20039;-33
2023/09/19 12:21:57;;;;;;;4.22;1.38;;;20.80;67.20;;;;;;5114280;28;20098;-35
2023/09/19 12:24:26;;;;;;;5.60;1.63;;;20.80;66.30;;;;;;5095547;28;20592;-34
2023/09/19 12:26:52;;;;;;;5.78;1.75;;;20.70;66.40;;;;;;5113991;28;20067;-34
2023/09/19 12:29:19;;;;;;;4.03;1.58;;;20.60;66.40;;;;;;5114279;28;20059;-36
2023/09/19 12:31:51;;;;;;;4.32;1.48;;;20.70;66.20;;;;;;5113849;28;20027;-37
2023/09/19 12:34:21;;;;;;;4.05;1.38;;;20.70;66.20;;;;;;5113682;28;20484;-36
2023/09/19 12:36:47;;;;;;;3.65;1.20;;;20.80;65.90;;;;;;5113518;28;20016;-35
2023/09/19 12:39:23;;;;;;;3.90;1.10;;;20.80;65.70;;;;;;5113490;28;20020;-38
2023/09/19 12:41:50;;;;;;;3.72;1.10;;;20.80;65.30;;;;;;5113813;28;20023;-35
2023/09/19 12:44:18;;;;;;;2.38;1.13;;;20.70;65.30;;;;;;5113559;28;20032;-40
2023/09/19 12:46:44;;;;;;;4.10;1.35;;;20.60;65.50;;;;;;5114080;28;20428;-35
2023/09/19 12:49:17;;;;;;;2.65;1.10;;;20.40;65.60;;;;;;5114188;28;20354;-36
2023/09/19 12:51:47;;;;;;;5.97;1.20;;;20.40;65.50;;;;;;5113667;28;20553;-34
2023/09/19 12:54:14;;;;;;;3.80;1.10;;;20.30;65.80;;;;;;5113424;28;20023;-38
2023/09/19 12:56:44;;;;;;;3.30;1.20;;;20.20;65.90;;;;;;5113859;28;20465;-37
2023/09/19 12:59:13;;;;;;;4.18;1.05;;;20.10;65.90;;;;;;5095852;28;20477;-34
2023/09/19 13:01:45;;;;;;;6.13;2.25;;;20.10;66.10;;;;;;5113480;28;20069;-36
2023/09/19 13:04:18;;;;;;;4.82;1.63;;;20.10;66.20;;;;;;5113401;28;20349;-36